createdAt,value
2023-03-10T00:01:53.635Z,48.65
2023-03-10T00:06:57.966Z,44.90
2023-03-10T00:12:02.373Z,44.63
2023-03-10T00:17:08.610Z,43.33
2023-03-10T00:22:13.128Z,37.13
2023-03-10T00:27:17.385Z,43.10
2023-03-10T00:32:23.106Z,40.65
2023-03-10T00:37:27.522Z,42.17
2023-03-10T00:42:31.796Z,38.28
2023-03-10T00:47:37.604Z,40.53
2023-03-10T00:52:41.838Z,33.30
2023-03-10T00:57:48.497Z,39.05
2023-03-10T01:02:54.636Z,32.30
2023-03-10T01:07:59.214Z,37.65
2023-03-10T01:13:03.584Z,36.13
2023-03-10T01:18:09.312Z,69.70
2023-03-10T01:23:17.380Z,63.00
2023-03-10T01:28:22.465Z,72.55
2023-03-10T01:33:28.423Z,62.27
2023-03-10T01:38:32.688Z,72.10
2023-03-10T01:43:39.954Z,50.55
2023-03-10T01:53:49.972Z,94.78
2023-03-10T01:58:55.366Z,249.43
2023-03-10T02:04:04.837Z,55.15
2023-03-10T02:09:12.356Z,145.25
2023-03-10T02:14:17.070Z,91.77
2023-03-10T02:19:48.813Z,89.15
2023-03-10T02:24:56.084Z,44.00
2023-03-10T02:30:06.943Z,55.67
2023-03-10T02:35:13.559Z,61.25
2023-03-10T02:40:34.132Z,43.00
2023-03-10T02:45:48.176Z,42.47
2023-03-10T02:50:54.594Z,32.88
2023-03-10T02:56:00.599Z,34.67
2023-03-10T03:01:09.837Z,27.15
2023-03-10T03:06:17.974Z,26.45
2023-03-10T03:11:23.380Z,31.65
2023-03-10T03:16:29.553Z,21.10
2023-03-10T03:21:38.197Z,23.73
2023-03-10T03:26:42.726Z,20.77
2023-03-10T03:31:55.469Z,19.48
2023-03-10T03:37:04.700Z,22.38
2023-03-10T03:42:13.825Z,17.20
2023-03-10T03:47:27.750Z,16.70
2023-03-10T03:52:33.360Z,17.88
2023-03-10T03:57:38.312Z,19.90
2023-03-10T04:02:44.779Z,16.33
2023-03-10T04:07:50.200Z,12.95
2023-03-10T04:12:56.211Z,14.98
2023-03-10T04:18:03.009Z,11.80
2023-03-10T04:23:07.400Z,12.18
2023-03-10T04:28:13.494Z,11.07
2023-03-10T04:33:19.556Z,12.27
2023-03-10T04:38:26.347Z,11.23
2023-03-10T04:43:31.226Z,9.02
2023-03-10T04:48:37.576Z,12.18
2023-03-10T04:53:41.971Z,12.27
2023-03-10T04:58:47.233Z,12.05
2023-03-10T05:03:53.010Z,13.18
2023-03-10T05:08:58.132Z,10.38
2023-03-10T05:14:02.512Z,11.95
2023-03-10T05:19:08.701Z,7.80
2023-03-10T05:24:13.727Z,12.82
2023-03-10T05:29:20.915Z,7.95
2023-03-10T05:34:32.475Z,7.00
2023-03-10T05:39:39.470Z,7.07
2023-03-10T05:44:48.546Z,9.57
2023-03-10T05:49:54.487Z,10.50
2023-03-10T05:54:59.654Z,68.35
2023-03-10T06:00:04.666Z,45.17
2023-03-10T06:05:18.992Z,39.30
2023-03-10T06:15:28.374Z,17.45
2023-03-10T06:20:34.418Z,16.75
2023-03-10T06:25:39.324Z,17.65
2023-03-10T06:30:43.698Z,41.88
2023-03-10T06:35:49.523Z,34.42
2023-03-10T06:45:58.772Z,11.95
2023-03-10T06:51:07.940Z,10.55
2023-03-10T06:56:14.872Z,10.23
2023-03-10T07:01:26.060Z,7.82
2023-03-10T07:06:31.896Z,6.80
2023-03-10T07:11:36.385Z,11.18
2023-03-10T07:16:41.193Z,8.75
2023-03-10T07:21:46.946Z,14.65
2023-03-10T07:26:51.213Z,7.88
2023-03-10T07:31:55.615Z,11.65
2023-03-10T07:37:01.308Z,9.00
2023-03-10T07:42:05.917Z,7.20
2023-03-10T07:47:10.951Z,9.45
2023-03-10T07:52:18.271Z,5.57
2023-03-10T07:57:22.677Z,8.05
2023-03-10T08:02:27.765Z,9.40
2023-03-10T08:07:34.046Z,5.55
2023-03-10T08:12:38.521Z,9.48
2023-03-10T08:17:42.841Z,6.22
2023-03-10T08:22:48.574Z,7.38
2023-03-10T08:27:52.873Z,6.45
2023-03-10T08:32:57.413Z,8.75
2023-03-10T08:38:03.282Z,5.55
2023-03-10T08:48:11.582Z,4.63
2023-03-10T08:53:17.361Z,7.07
2023-03-10T09:03:26.095Z,4.53
2023-03-10T09:08:31.897Z,9.07
2023-03-10T09:18:41.528Z,8.05
2023-03-10T09:23:49.301Z,4.23
2023-03-10T09:28:56.764Z,9.43
2023-03-10T09:34:01.400Z,3.58
2023-03-10T09:39:07.254Z,6.03
2023-03-10T09:44:24.235Z,8.18
2023-03-10T09:49:36.885Z,6.18
2023-03-10T09:54:53.068Z,6.15
2023-03-10T10:00:01.139Z,4.82
2023-03-10T10:05:15.546Z,5.97
2023-03-10T10:15:35.288Z,5.78
2023-03-10T10:20:43.861Z,7.95
2023-03-10T10:25:50.527Z,7.28
2023-03-10T10:31:12.256Z,5.80
2023-03-10T10:36:18.868Z,6.90
2023-03-10T10:41:28.732Z,10.27
2023-03-10T10:46:33.137Z,7.63
2023-03-10T10:51:38.911Z,14.48
2023-03-10T10:56:53.513Z,11.85
2023-03-10T11:01:59.175Z,36.47
2023-03-10T11:07:17.486Z,11.85
2023-03-10T11:12:29.732Z,6.20
2023-03-10T11:17:39.678Z,12.93
2023-03-10T11:22:47.510Z,11.25
2023-03-10T11:28:03.421Z,12.65
2023-03-10T11:38:30.777Z,5.93
2023-03-10T11:43:45.637Z,7.00
2023-03-10T11:49:07.439Z,5.67
2023-03-10T11:54:16.398Z,7.13
2023-03-10T11:59:23.893Z,6.22
2023-03-10T12:04:34.214Z,7.13
2023-03-10T12:09:42.485Z,14.55
2023-03-10T12:14:49.264Z,6.68
2023-03-10T12:20:25.887Z,5.75
2023-03-10T12:25:47.321Z,5.07
2023-03-10T12:30:56.515Z,5.28
2023-03-10T12:36:05.245Z,6.07
2023-03-10T12:41:10.326Z,7.13
2023-03-10T12:46:20.734Z,6.00
2023-03-10T12:51:30.188Z,6.72
2023-03-10T12:56:39.929Z,10.65
2023-03-10T13:01:55.451Z,5.85
2023-03-10T13:07:04.022Z,4.60
2023-03-10T13:12:15.928Z,5.07
2023-03-10T13:17:27.291Z,9.70
2023-03-10T13:22:31.376Z,7.00
2023-03-10T13:27:36.622Z,7.32
2023-03-10T13:32:43.380Z,5.60
2023-03-10T13:38:05.139Z,6.07
2023-03-10T13:43:27.939Z,5.82
2023-03-10T13:48:35.275Z,10.25
2023-03-10T13:53:39.436Z,9.60
2023-03-10T13:58:44.367Z,7.40
2023-03-10T14:03:56.356Z,5.88
2023-03-10T14:09:14.919Z,10.20
2023-03-10T14:14:29.146Z,10.68
2023-03-10T14:19:51.079Z,6.70
2023-03-10T14:24:55.395Z,6.35
2023-03-10T14:30:03.720Z,18.00
2023-03-10T14:35:12.995Z,14.15
2023-03-10T14:40:18.322Z,8.65
2023-03-10T14:45:29.034Z,10.63
2023-03-10T14:50:35.653Z,10.65
2023-03-10T14:55:40.396Z,11.77
2023-03-10T15:00:44.764Z,8.80
2023-03-10T15:05:50.390Z,11.38
2023-03-10T15:10:54.661Z,10.50
2023-03-10T15:15:59.054Z,10.98
2023-03-10T15:21:04.676Z,11.98
2023-03-10T15:31:15.525Z,7.88
2023-03-10T15:36:21.314Z,13.52
2023-03-10T15:41:25.542Z,9.10
2023-03-10T15:46:29.781Z,13.13
2023-03-10T15:51:35.295Z,8.80
2023-03-10T15:56:39.702Z,12.48
2023-03-10T16:01:43.980Z,9.98
2023-03-10T16:06:49.558Z,9.57
2023-03-10T16:11:53.771Z,12.77
2023-03-10T16:16:58.676Z,8.50
2023-03-10T16:22:04.172Z,10.07
2023-03-10T16:27:08.417Z,12.27
2023-03-10T16:32:14.206Z,11.98
2023-03-10T16:37:19.880Z,15.35
2023-03-10T16:42:26.350Z,15.15
2023-03-10T16:47:30.475Z,14.48
2023-03-10T16:52:40.610Z,10.95
2023-03-10T16:57:45.277Z,9.63
2023-03-10T17:02:49.861Z,9.80
2023-03-10T17:08:02.347Z,8.45
2023-03-10T17:13:06.492Z,9.32
2023-03-10T17:18:10.572Z,10.75
2023-03-10T17:23:16.249Z,8.93
2023-03-10T17:28:20.530Z,10.18
2023-03-10T17:33:24.825Z,13.23
2023-03-10T17:38:30.327Z,11.32
2023-03-10T17:43:36.185Z,11.93
2023-03-10T17:53:46.942Z,12.23
2023-03-10T17:58:51.629Z,13.77
2023-03-10T18:03:56.155Z,15.40
2023-03-10T18:09:04.648Z,14.32
2023-03-10T18:14:09.461Z,16.33
2023-03-10T18:19:15.406Z,15.63
2023-03-10T18:24:21.266Z,10.13
2023-03-10T18:34:29.624Z,11.32
2023-03-10T18:39:35.426Z,11.93
2023-03-10T18:44:45.742Z,9.75
2023-03-10T18:49:50.193Z,13.25
2023-03-10T18:54:55.951Z,15.88
2023-03-10T19:00:01.107Z,10.85
2023-03-10T19:05:06.059Z,10.10
2023-03-10T19:10:15.323Z,7.93
2023-03-10T19:15:19.553Z,11.63
2023-03-10T19:20:24.006Z,9.98
2023-03-10T19:25:29.557Z,8.40
2023-03-10T19:30:34.910Z,7.50
2023-03-10T19:35:39.978Z,10.70
2023-03-10T19:40:48.402Z,10.83
2023-03-10T19:45:52.493Z,10.82
2023-03-10T19:50:57.034Z,9.15
2023-03-10T19:56:04.853Z,9.95
2023-03-10T20:01:14.266Z,10.73
2023-03-10T20:06:18.629Z,13.43
2023-03-10T20:11:25.195Z,15.82
2023-03-10T20:16:29.738Z,18.13
2023-03-10T20:21:34.343Z,14.43
2023-03-10T20:26:40.211Z,14.32
2023-03-10T20:31:44.510Z,11.57
2023-03-10T20:36:49.119Z,12.45
2023-03-10T20:41:54.975Z,9.63
2023-03-10T20:46:59.083Z,12.63
2023-03-10T20:52:03.436Z,12.95
2023-03-10T20:57:09.457Z,13.13
2023-03-10T21:02:16.778Z,12.30
2023-03-10T21:07:21.282Z,12.02
2023-03-10T21:12:27.067Z,11.95
2023-03-10T21:17:31.301Z,10.65
2023-03-10T21:22:36.054Z,10.82
2023-03-10T21:27:41.723Z,11.37
2023-03-10T21:32:46.846Z,11.93
2023-03-10T21:37:51.035Z,13.03
2023-03-10T21:42:56.536Z,15.10
2023-03-10T21:48:00.864Z,15.85
2023-03-10T21:53:06.425Z,15.73
2023-03-10T21:58:11.994Z,17.88
2023-03-10T22:03:16.089Z,19.55
2023-03-10T22:08:21.075Z,11.98
2023-03-10T22:13:26.760Z,14.00
2023-03-10T22:18:30.958Z,18.25
2023-03-10T22:23:35.058Z,13.57
2023-03-10T22:28:40.904Z,10.80
2023-03-10T22:33:45.435Z,16.38
2023-03-10T22:38:49.813Z,15.88
2023-03-10T22:43:56.118Z,16.35
2023-03-10T22:49:00.570Z,13.85
2023-03-10T22:54:05.082Z,16.15
2023-03-10T22:59:10.692Z,16.88
2023-03-10T23:04:14.925Z,13.50
2023-03-10T23:09:19.251Z,12.27
2023-03-10T23:14:24.897Z,12.80
2023-03-10T23:19:29.073Z,12.82
2023-03-10T23:24:33.285Z,17.13
2023-03-10T23:29:38.984Z,13.13
2023-03-10T23:34:43.171Z,11.80
2023-03-10T23:39:47.581Z,10.60
2023-03-10T23:44:53.070Z,12.63
2023-03-10T23:49:57.340Z,16.25
2023-03-10T23:55:01.776Z,17.42
